sensor_id;sensor_type;location;lat;lon;timestamp;P1;durP1;ratioP1;P2;durP2;ratioP2
51374;SDS011;37465;52.738;4.752;2022-08-20T00:00:27;7.95;;;2.00;;
51374;SDS011;37465;52.738;4.752;2022-08-20T00:02:55;7.10;;;2.35;;
51374;SDS011;37465;52.738;4.752;2022-08-20T00:05:25;6.32;;;2.40;;
51374;SDS011;37465;52.738;4.752;2022-08-20T00:07:53;7.22;;;2.03;;
51374;SDS011;37465;52.738;4.752;2022-08-20T00:10:21;6.97;;;2.50;;
51374;SDS011;37465;52.738;4.752;2022-08-20T00:12:49;5.60;;;2.00;;
51374;SDS011;37465;52.738;4.752;2022-08-20T00:15:18;7.63;;;2.42;;
51374;SDS011;37465;52.738;4.752;2022-08-20T00:17:47;6.80;;;2.10;;
51374;SDS011;37465;52.738;4.752;2022-08-20T00:20:16;8.00;;;2.15;;
51374;SDS011;37465;52.738;4.752;2022-08-20T00:22:45;7.55;;;2.22;;
51374;SDS011;37465;52.738;4.752;2022-08-20T00:25:13;6.82;;;2.15;;
51374;SDS011;37465;52.738;4.752;2022-08-20T00:27:41;8.20;;;2.38;;
51374;SDS011;37465;52.738;4.752;2022-08-20T00:30:09;8.43;;;2.30;;
51374;SDS011;37465;52.738;4.752;2022-08-20T00:32:41;6.97;;;2.20;;
51374;SDS011;37465;52.738;4.752;2022-08-20T00:35:08;8.40;;;2.00;;
51374;SDS011;37465;52.738;4.752;2022-08-20T00:37:38;7.35;;;2.15;;
51374;SDS011;37465;52.738;4.752;2022-08-20T00:40:08;6.03;;;1.95;;
51374;SDS011;37465;52.738;4.752;2022-08-20T00:42:50;6.80;;;2.07;;
51374;SDS011;37465;52.738;4.752;2022-08-20T00:45:18;8.45;;;2.15;;
51374;SDS011;37465;52.738;4.752;2022-08-20T00:47:45;7.03;;;2.13;;
51374;SDS011;37465;52.738;4.752;2022-08-20T00:50:17;5.88;;;2.20;;
51374;SDS011;37465;52.738;4.752;2022-08-20T00:52:46;5.75;;;2.00;;
51374;SDS011;37465;52.738;4.752;2022-08-20T00:55:17;6.72;;;2.33;;
51374;SDS011;37465;52.738;4.752;2022-08-20T00:57:46;8.25;;;2.20;;
51374;SDS011;37465;52.738;4.752;2022-08-20T01:00:29;5.93;;;1.90;;
51374;SDS011;37465;52.738;4.752;2022-08-20T01:02:57;6.10;;;1.90;;
51374;SDS011;37465;52.738;4.752;2022-08-20T01:05:25;6.05;;;2.10;;
51374;SDS011;37465;52.738;4.752;2022-08-20T01:07:55;7.40;;;2.03;;
51374;SDS011;37465;52.738;4.752;2022-08-20T01:10:25;6.57;;;2.10;;
51374;SDS011;37465;52.738;4.752;2022-08-20T01:12:53;7.03;;;2.20;;
51374;SDS011;37465;52.738;4.752;2022-08-20T01:15:26;6.07;;;2.30;;
51374;SDS011;37465;52.738;4.752;2022-08-20T01:17:57;7.55;;;2.40;;
51374;SDS011;37465;52.738;4.752;2022-08-20T01:20:26;6.47;;;2.25;;
51374;SDS011;37465;52.738;4.752;2022-08-20T01:22:57;6.75;;;2.35;;
51374;SDS011;37465;52.738;4.752;2022-08-20T01:25:47;6.93;;;2.17;;
51374;SDS011;37465;52.738;4.752;2022-08-20T01:28:15;6.70;;;2.10;;
51374;SDS011;37465;52.738;4.752;2022-08-20T01:30:43;6.93;;;1.95;;
51374;SDS011;37465;52.738;4.752;2022-08-20T01:33:11;7.57;;;2.10;;
51374;SDS011;37465;52.738;4.752;2022-08-20T01:35:40;6.40;;;2.42;;
51374;SDS011;37465;52.738;4.752;2022-08-20T01:38:07;6.53;;;2.20;;
51374;SDS011;37465;52.738;4.752;2022-08-20T01:40:42;7.57;;;2.15;;
51374;SDS011;37465;52.738;4.752;2022-08-20T01:43:12;5.93;;;2.17;;
51374;SDS011;37465;52.738;4.752;2022-08-20T01:45:39;6.10;;;2.10;;
51374;SDS011;37465;52.738;4.752;2022-08-20T01:48:09;6.05;;;2.13;;
51374;SDS011;37465;52.738;4.752;2022-08-20T01:50:39;6.13;;;2.15;;
51374;SDS011;37465;52.738;4.752;2022-08-20T01:53:10;5.55;;;2.10;;
51374;SDS011;37465;52.738;4.752;2022-08-20T01:55:40;8.70;;;2.30;;
51374;SDS011;37465;52.738;4.752;2022-08-20T01:58:07;7.13;;;2.33;;
51374;SDS011;37465;52.738;4.752;2022-08-20T02:00:36;7.63;;;2.60;;
51374;SDS011;37465;52.738;4.752;2022-08-20T02:03:03;8.98;;;2.47;;
51374;SDS011;37465;52.738;4.752;2022-08-20T02:05:33;8.52;;;2.35;;
51374;SDS011;37465;52.738;4.752;2022-08-20T02:08:00;7.47;;;2.53;;
51374;SDS011;37465;52.738;4.752;2022-08-20T02:10:28;6.07;;;2.50;;
51374;SDS011;37465;52.738;4.752;2022-08-20T02:12:57;6.68;;;2.42;;
51374;SDS011;37465;52.738;4.752;2022-08-20T02:15:24;8.73;;;2.47;;
51374;SDS011;37465;52.738;4.752;2022-08-20T02:18:03;7.25;;;2.50;;
51374;SDS011;37465;52.738;4.752;2022-08-20T02:20:33;10.77;;;2.75;;
51374;SDS011;37465;52.738;4.752;2022-08-20T02:23:00;6.30;;;2.72;;
51374;SDS011;37465;52.738;4.752;2022-08-20T02:25:29;7.32;;;2.53;;
51374;SDS011;37465;52.738;4.752;2022-08-20T02:32:53;5.38;;;2.22;;
51374;SDS011;37465;52.738;4.752;2022-08-20T02:37:50;4.78;;;1.67;;
51374;SDS011;37465;52.738;4.752;2022-08-20T02:40:19;8.88;;;2.97;;
51374;SDS011;37465;52.738;4.752;2022-08-20T02:42:55;8.60;;;2.90;;
51374;SDS011;37465;52.738;4.752;2022-08-20T02:45:23;6.13;;;2.80;;
51374;SDS011;37465;52.738;4.752;2022-08-20T02:47:51;8.30;;;3.30;;
51374;SDS011;37465;52.738;4.752;2022-08-20T02:50:19;6.90;;;3.35;;
51374;SDS011;37465;52.738;4.752;2022-08-20T02:52:46;8.55;;;3.60;;
51374;SDS011;37465;52.738;4.752;2022-08-20T02:55:19;8.10;;;3.47;;
51374;SDS011;37465;52.738;4.752;2022-08-20T02:57:53;7.25;;;3.03;;
51374;SDS011;37465;52.738;4.752;2022-08-20T03:00:24;6.80;;;2.93;;
51374;SDS011;37465;52.738;4.752;2022-08-20T03:02:51;7.82;;;3.10;;
51374;SDS011;37465;52.738;4.752;2022-08-20T03:05:19;7.80;;;3.10;;
51374;SDS011;37465;52.738;4.752;2022-08-20T03:07:47;7.83;;;3.30;;
51374;SDS011;37465;52.738;4.752;2022-08-20T03:10:16;8.23;;;3.33;;
51374;SDS011;37465;52.738;4.752;2022-08-20T03:12:44;6.60;;;3.40;;
51374;SDS011;37465;52.738;4.752;2022-08-20T03:15:13;6.65;;;3.40;;
51374;SDS011;37465;52.738;4.752;2022-08-20T03:17:43;7.07;;;3.30;;
51374;SDS011;37465;52.738;4.752;2022-08-20T03:20:11;9.75;;;3.80;;
51374;SDS011;37465;52.738;4.752;2022-08-20T03:22:39;7.88;;;3.50;;
51374;SDS011;37465;52.738;4.752;2022-08-20T03:25:07;6.65;;;3.45;;
51374;SDS011;37465;52.738;4.752;2022-08-20T03:27:34;8.32;;;3.88;;
51374;SDS011;37465;52.738;4.752;2022-08-20T03:30:04;8.00;;;3.70;;
51374;SDS011;37465;52.738;4.752;2022-08-20T03:32:32;7.78;;;3.85;;
51374;SDS011;37465;52.738;4.752;2022-08-20T03:35:00;8.85;;;3.92;;
51374;SDS011;37465;52.738;4.752;2022-08-20T03:37:29;8.57;;;3.55;;
51374;SDS011;37465;52.738;4.752;2022-08-20T03:39:56;7.70;;;4.20;;
51374;SDS011;37465;52.738;4.752;2022-08-20T03:42:24;9.20;;;3.95;;
51374;SDS011;37465;52.738;4.752;2022-08-20T03:44:51;7.18;;;3.78;;
51374;SDS011;37465;52.738;4.752;2022-08-20T03:47:25;6.67;;;3.70;;
51374;SDS011;37465;52.738;4.752;2022-08-20T03:49:56;7.37;;;3.93;;
51374;SDS011;37465;52.738;4.752;2022-08-20T03:52:24;7.30;;;3.90;;
51374;SDS011;37465;52.738;4.752;2022-08-20T03:54:52;7.45;;;3.88;;
51374;SDS011;37465;52.738;4.752;2022-08-20T03:57:20;10.18;;;4.20;;
51374;SDS011;37465;52.738;4.752;2022-08-20T03:59:47;8.15;;;3.88;;
51374;SDS011;37465;52.738;4.752;2022-08-20T04:02:23;8.43;;;3.83;;
51374;SDS011;37465;52.738;4.752;2022-08-20T04:04:52;8.23;;;4.30;;
51374;SDS011;37465;52.738;4.752;2022-08-20T04:07:21;7.05;;;4.13;;
51374;SDS011;37465;52.738;4.752;2022-08-20T04:09:51;7.18;;;4.00;;
51374;SDS011;37465;52.738;4.752;2022-08-20T04:12:18;7.97;;;4.13;;
51374;SDS011;37465;52.738;4.752;2022-08-20T04:14:46;7.57;;;3.80;;
51374;SDS011;37465;52.738;4.752;2022-08-20T04:17:15;8.10;;;4.15;;
51374;SDS011;37465;52.738;4.752;2022-08-20T04:19:44;9.63;;;4.10;;
51374;SDS011;37465;52.738;4.752;2022-08-20T04:22:13;9.35;;;4.57;;
51374;SDS011;37465;52.738;4.752;2022-08-20T04:24:41;9.27;;;4.20;;
51374;SDS011;37465;52.738;4.752;2022-08-20T04:27:08;6.80;;;3.70;;
51374;SDS011;37465;52.738;4.752;2022-08-20T04:29:38;7.35;;;3.97;;
51374;SDS011;37465;52.738;4.752;2022-08-20T04:32:08;7.13;;;4.00;;
51374;SDS011;37465;52.738;4.752;2022-08-20T04:34:35;9.50;;;4.15;;
51374;SDS011;37465;52.738;4.752;2022-08-20T04:37:03;7.33;;;3.67;;
51374;SDS011;37465;52.738;4.752;2022-08-20T04:39:43;9.93;;;4.15;;
51374;SDS011;37465;52.738;4.752;2022-08-20T04:42:31;7.75;;;3.72;;
51374;SDS011;37465;52.738;4.752;2022-08-20T04:44:59;6.47;;;3.67;;
51374;SDS011;37465;52.738;4.752;2022-08-20T04:47:26;9.55;;;4.35;;
51374;SDS011;37465;52.738;4.752;2022-08-20T04:50:00;6.80;;;3.70;;
51374;SDS011;37465;52.738;4.752;2022-08-20T04:52:27;9.73;;;3.95;;
51374;SDS011;37465;52.738;4.752;2022-08-20T04:54:59;6.88;;;4.25;;
51374;SDS011;37465;52.738;4.752;2022-08-20T04:57:27;8.60;;;4.17;;
51374;SDS011;37465;52.738;4.752;2022-08-20T04:59:54;9.98;;;4.10;;
51374;SDS011;37465;52.738;4.752;2022-08-20T05:02:24;9.23;;;4.13;;
51374;SDS011;37465;52.738;4.752;2022-08-20T05:04:52;9.20;;;4.30;;
51374;SDS011;37465;52.738;4.752;2022-08-20T05:07:19;9.48;;;4.50;;
51374;SDS011;37465;52.738;4.752;2022-08-20T05:09:47;7.32;;;4.05;;
51374;SDS011;37465;52.738;4.752;2022-08-20T05:12:15;6.38;;;3.75;;
51374;SDS011;37465;52.738;4.752;2022-08-20T05:14:44;10.27;;;4.70;;
51374;SDS011;37465;52.738;4.752;2022-08-20T05:17:14;7.28;;;3.83;;
51374;SDS011;37465;52.738;4.752;2022-08-20T05:19:42;6.20;;;3.92;;
51374;SDS011;37465;52.738;4.752;2022-08-20T05:22:11;8.23;;;4.13;;
51374;SDS011;37465;52.738;4.752;2022-08-20T05:24:39;7.68;;;4.00;;
51374;SDS011;37465;52.738;4.752;2022-08-20T05:27:07;9.15;;;3.80;;
51374;SDS011;37465;52.738;4.752;2022-08-20T05:29:46;8.45;;;3.80;;
51374;SDS011;37465;52.738;4.752;2022-08-20T05:32:13;8.95;;;3.90;;
51374;SDS011;37465;52.738;4.752;2022-08-20T05:34:41;8.73;;;4.07;;
51374;SDS011;37465;52.738;4.752;2022-08-20T05:37:09;8.88;;;3.65;;
51374;SDS011;37465;52.738;4.752;2022-08-20T05:39:37;9.68;;;3.88;;
51374;SDS011;37465;52.738;4.752;2022-08-20T05:42:04;7.93;;;3.42;;
51374;SDS011;37465;52.738;4.752;2022-08-20T05:44:32;9.85;;;3.30;;
51374;SDS011;37465;52.738;4.752;2022-08-20T05:47:03;8.80;;;3.42;;
51374;SDS011;37465;52.738;4.752;2022-08-20T05:49:31;7.32;;;3.45;;
51374;SDS011;37465;52.738;4.752;2022-08-20T05:51:59;7.20;;;3.33;;
51374;SDS011;37465;52.738;4.752;2022-08-20T05:54:26;6.63;;;2.85;;
51374;SDS011;37465;52.738;4.752;2022-08-20T05:56:54;7.05;;;3.15;;
51374;SDS011;37465;52.738;4.752;2022-08-20T05:59:22;7.53;;;3.30;;
51374;SDS011;37465;52.738;4.752;2022-08-20T06:01:50;5.47;;;2.80;;
51374;SDS011;37465;52.738;4.752;2022-08-20T06:04:19;7.93;;;3.30;;
51374;SDS011;37465;52.738;4.752;2022-08-20T06:06:53;7.38;;;2.42;;
51374;SDS011;37465;52.738;4.752;2022-08-20T06:09:21;4.28;;;2.30;;
51374;SDS011;37465;52.738;4.752;2022-08-20T06:11:57;4.43;;;1.92;;
51374;SDS011;37465;52.738;4.752;2022-08-20T06:19:24;6.95;;;2.58;;
51374;SDS011;37465;52.738;4.752;2022-08-20T06:21:57;5.78;;;1.83;;
51374;SDS011;37465;52.738;4.752;2022-08-20T06:24:25;8.40;;;1.70;;
51374;SDS011;37465;52.738;4.752;2022-08-20T06:26:54;4.55;;;1.58;;
51374;SDS011;37465;52.738;4.752;2022-08-20T06:29:21;5.10;;;1.60;;
51374;SDS011;37465;52.738;4.752;2022-08-20T06:31:48;5.50;;;1.30;;
51374;SDS011;37465;52.738;4.752;2022-08-20T06:34:16;4.40;;;1.30;;
51374;SDS011;37465;52.738;4.752;2022-08-20T06:36:45;5.22;;;1.52;;
51374;SDS011;37465;52.738;4.752;2022-08-20T06:39:13;7.00;;;1.98;;
51374;SDS011;37465;52.738;4.752;2022-08-20T06:41:41;5.82;;;1.70;;
51374;SDS011;37465;52.738;4.752;2022-08-20T06:44:09;4.97;;;1.42;;
51374;SDS011;37465;52.738;4.752;2022-08-20T06:46:37;5.40;;;1.85;;
51374;SDS011;37465;52.738;4.752;2022-08-20T06:49:05;5.57;;;1.98;;
51374;SDS011;37465;52.738;4.752;2022-08-20T06:51:33;5.93;;;1.70;;
51374;SDS011;37465;52.738;4.752;2022-08-20T06:54:03;4.50;;;1.58;;
51374;SDS011;37465;52.738;4.752;2022-08-20T06:56:31;4.55;;;1.70;;
51374;SDS011;37465;52.738;4.752;2022-08-20T06:58:59;6.00;;;1.67;;
51374;SDS011;37465;52.738;4.752;2022-08-20T07:01:27;6.27;;;1.60;;
51374;SDS011;37465;52.738;4.752;2022-08-20T07:03:54;7.38;;;1.70;;
51374;SDS011;37465;52.738;4.752;2022-08-20T07:06:24;5.68;;;1.40;;
51374;SDS011;37465;52.738;4.752;2022-08-20T07:08:52;5.60;;;1.88;;
51374;SDS011;37465;52.738;4.752;2022-08-20T07:11:21;5.50;;;1.63;;
51374;SDS011;37465;52.738;4.752;2022-08-20T07:13:53;5.80;;;1.60;;
51374;SDS011;37465;52.738;4.752;2022-08-20T07:16:22;8.23;;;1.83;;
51374;SDS011;37465;52.738;4.752;2022-08-20T07:18:49;5.57;;;1.70;;
51374;SDS011;37465;52.738;4.752;2022-08-20T07:21:17;5.45;;;1.60;;
51374;SDS011;37465;52.738;4.752;2022-08-20T07:23:44;5.87;;;1.90;;
51374;SDS011;37465;52.738;4.752;2022-08-20T07:26:14;6.05;;;1.50;;
51374;SDS011;37465;52.738;4.752;2022-08-20T07:28:42;6.95;;;1.70;;
51374;SDS011;37465;52.738;4.752;2022-08-20T07:31:10;5.30;;;1.47;;
51374;SDS011;37465;52.738;4.752;2022-08-20T07:33:56;5.47;;;1.50;;
51374;SDS011;37465;52.738;4.752;2022-08-20T07:36:25;5.57;;;1.75;;
51374;SDS011;37465;52.738;4.752;2022-08-20T07:38:52;6.57;;;1.60;;
51374;SDS011;37465;52.738;4.752;2022-08-20T07:41:22;5.63;;;1.83;;
51374;SDS011;37465;52.738;4.752;2022-08-20T07:43:50;4.68;;;1.40;;
51374;SDS011;37465;52.738;4.752;2022-08-20T07:46:19;3.95;;;1.52;;
51374;SDS011;37465;52.738;4.752;2022-08-20T07:48:47;5.50;;;1.70;;
51374;SDS011;37465;52.738;4.752;2022-08-20T07:51:17;5.55;;;1.67;;
51374;SDS011;37465;52.738;4.752;2022-08-20T07:53:45;4.55;;;1.52;;
51374;SDS011;37465;52.738;4.752;2022-08-20T07:56:14;4.95;;;1.65;;
51374;SDS011;37465;52.738;4.752;2022-08-20T07:58:43;4.38;;;1.40;;
51374;SDS011;37465;52.738;4.752;2022-08-20T08:01:17;5.72;;;1.40;;
51374;SDS011;37465;52.738;4.752;2022-08-20T08:03:45;3.95;;;1.38;;
51374;SDS011;37465;52.738;4.752;2022-08-20T08:06:16;4.43;;;1.50;;
51374;SDS011;37465;52.738;4.752;2022-08-20T08:08:55;6.40;;;1.60;;
51374;SDS011;37465;52.738;4.752;2022-08-20T08:11:23;4.85;;;1.23;;
51374;SDS011;37465;52.738;4.752;2022-08-20T08:13:51;4.70;;;1.33;;
51374;SDS011;37465;52.738;4.752;2022-08-20T08:16:19;4.90;;;1.50;;
51374;SDS011;37465;52.738;4.752;2022-08-20T08:18:47;5.10;;;1.67;;
51374;SDS011;37465;52.738;4.752;2022-08-20T08:21:16;5.82;;;1.60;;
51374;SDS011;37465;52.738;4.752;2022-08-20T08:23:44;4.22;;;1.70;;
51374;SDS011;37465;52.738;4.752;2022-08-20T08:26:12;3.90;;;1.35;;
51374;SDS011;37465;52.738;4.752;2022-08-20T08:28:44;5.85;;;1.60;;
51374;SDS011;37465;52.738;4.752;2022-08-20T08:31:12;4.45;;;1.48;;
51374;SDS011;37465;52.738;4.752;2022-08-20T08:33:41;4.45;;;1.48;;
51374;SDS011;37465;52.738;4.752;2022-08-20T08:36:09;5.22;;;1.77;;
51374;SDS011;37465;52.738;4.752;2022-08-20T08:38:38;6.78;;;1.80;;
51374;SDS011;37465;52.738;4.752;2022-08-20T08:41:07;5.17;;;1.70;;
51374;SDS011;37465;52.738;4.752;2022-08-20T08:43:37;5.70;;;1.80;;
51374;SDS011;37465;52.738;4.752;2022-08-20T08:46:05;5.68;;;1.48;;
51374;SDS011;37465;52.738;4.752;2022-08-20T08:48:36;6.68;;;1.73;;
51374;SDS011;37465;52.738;4.752;2022-08-20T08:51:05;4.55;;;1.30;;
51374;SDS011;37465;52.738;4.752;2022-08-20T12:15:24;3.72;;;1.33;;
51374;SDS011;37465;52.738;4.752;2022-08-20T13:36:38;3.58;;;1.55;;
51374;SDS011;37465;52.738;4.752;2022-08-20T13:41:33;5.20;;;1.30;;
51374;SDS011;37465;52.738;4.752;2022-08-20T13:44:00;4.80;;;1.15;;
51374;SDS011;37465;52.738;4.752;2022-08-20T13:46:28;3.63;;;1.40;;
51374;SDS011;37465;52.738;4.752;2022-08-20T13:48:55;6.32;;;1.48;;
51374;SDS011;37465;52.738;4.752;2022-08-20T13:56:21;3.03;;;1.20;;
51374;SDS011;37465;52.738;4.752;2022-08-20T13:58:48;5.32;;;1.55;;
51374;SDS011;37465;52.738;4.752;2022-08-20T14:01:18;3.88;;;1.13;;
51374;SDS011;37465;52.738;4.752;2022-08-20T14:03:45;4.40;;;1.30;;
51374;SDS011;37465;52.738;4.752;2022-08-20T14:06:13;4.07;;;1.13;;
51374;SDS011;37465;52.738;4.752;2022-08-20T14:08:40;2.15;;;0.80;;
51374;SDS011;37465;52.738;4.752;2022-08-20T14:11:08;2.47;;;0.90;;
51374;SDS011;37465;52.738;4.752;2022-08-20T14:13:44;2.47;;;0.90;;
51374;SDS011;37465;52.738;4.752;2022-08-20T14:16:11;3.45;;;1.00;;
51374;SDS011;37465;52.738;4.752;2022-08-20T14:18:58;2.60;;;0.90;;
51374;SDS011;37465;52.738;4.752;2022-08-20T14:21:26;3.95;;;1.20;;
51374;SDS011;37465;52.738;4.752;2022-08-20T14:23:53;2.33;;;0.80;;
51374;SDS011;37465;52.738;4.752;2022-08-20T15:27:55;4.38;;;1.35;;
51374;SDS011;37465;52.738;4.752;2022-08-20T15:30:26;4.82;;;1.65;;
51374;SDS011;37465;52.738;4.752;2022-08-20T15:32:54;2.40;;;0.98;;
51374;SDS011;37465;52.738;4.752;2022-08-20T15:35:23;3.88;;;1.00;;
51374;SDS011;37465;52.738;4.752;2022-08-20T15:37:51;3.38;;;1.05;;
51374;SDS011;37465;52.738;4.752;2022-08-20T15:40:21;4.03;;;1.20;;
51374;SDS011;37465;52.738;4.752;2022-08-20T15:42:55;5.95;;;1.02;;
51374;SDS011;37465;52.738;4.752;2022-08-20T15:45:23;2.33;;;0.98;;
51374;SDS011;37465;52.738;4.752;2022-08-20T15:47:52;3.65;;;1.05;;
51374;SDS011;37465;52.738;4.752;2022-08-20T15:50:24;3.95;;;1.08;;
51374;SDS011;37465;52.738;4.752;2022-08-20T15:52:56;2.20;;;0.80;;
51374;SDS011;37465;52.738;4.752;2022-08-20T15:55:26;2.80;;;0.75;;
51374;SDS011;37465;52.738;4.752;2022-08-20T15:57:57;5.18;;;1.15;;
51374;SDS011;37465;52.738;4.752;2022-08-20T16:00:28;1.88;;;0.73;;
51374;SDS011;37465;52.738;4.752;2022-08-20T16:03:10;3.67;;;1.08;;
51374;SDS011;37465;52.738;4.752;2022-08-20T16:05:41;3.10;;;0.90;;
51374;SDS011;37465;52.738;4.752;2022-08-20T16:08:17;3.38;;;0.80;;
51374;SDS011;37465;52.738;4.752;2022-08-20T16:10:49;2.83;;;1.00;;
51374;SDS011;37465;52.738;4.752;2022-08-20T16:13:27;2.90;;;1.08;;
51374;SDS011;37465;52.738;4.752;2022-08-20T16:15:58;2.40;;;0.80;;
51374;SDS011;37465;52.738;4.752;2022-08-20T16:18:27;3.55;;;1.00;;
51374;SDS011;37465;52.738;4.752;2022-08-20T16:20:56;2.45;;;1.05;;
51374;SDS011;37465;52.738;4.752;2022-08-20T16:23:29;3.30;;;0.95;;
51374;SDS011;37465;52.738;4.752;2022-08-20T16:28:25;3.20;;;1.00;;
51374;SDS011;37465;52.738;4.752;2022-08-20T16:30:57;2.85;;;1.10;;
51374;SDS011;37465;52.738;4.752;2022-08-20T16:33:28;2.00;;;0.95;;
51374;SDS011;37465;52.738;4.752;2022-08-20T16:35:57;2.55;;;0.63;;
51374;SDS011;37465;52.738;4.752;2022-08-20T16:38:30;1.77;;;0.82;;
51374;SDS011;37465;52.738;4.752;2022-08-20T16:41:00;3.97;;;0.68;;
51374;SDS011;37465;52.738;4.752;2022-08-20T16:43:30;1.38;;;0.60;;
51374;SDS011;37465;52.738;4.752;2022-08-20T16:46:00;2.20;;;0.60;;
51374;SDS011;37465;52.738;4.752;2022-08-20T16:48:29;3.13;;;1.42;;
51374;SDS011;37465;52.738;4.752;2022-08-20T16:51:00;2.92;;;0.80;;
51374;SDS011;37465;52.738;4.752;2022-08-20T16:53:28;3.15;;;0.73;;
51374;SDS011;37465;52.738;4.752;2022-08-20T16:55:56;2.60;;;0.98;;
51374;SDS011;37465;52.738;4.752;2022-08-20T16:58:23;2.42;;;0.68;;
51374;SDS011;37465;52.738;4.752;2022-08-20T17:01:02;2.17;;;0.70;;
51374;SDS011;37465;52.738;4.752;2022-08-20T17:03:30;1.33;;;0.80;;
51374;SDS011;37465;52.738;4.752;2022-08-20T17:06:11;2.05;;;0.70;;
51374;SDS011;37465;52.738;4.752;2022-08-20T17:08:44;3.53;;;1.10;;
51374;SDS011;37465;52.738;4.752;2022-08-20T17:11:15;1.88;;;0.70;;
51374;SDS011;37465;52.738;4.752;2022-08-20T17:13:47;2.30;;;0.80;;
51374;SDS011;37465;52.738;4.752;2022-08-20T17:16:18;3.47;;;1.13;;
51374;SDS011;37465;52.738;4.752;2022-08-20T17:18:46;2.33;;;1.20;;
51374;SDS011;37465;52.738;4.752;2022-08-20T17:21:15;3.17;;;1.25;;
51374;SDS011;37465;52.738;4.752;2022-08-20T17:23:49;2.58;;;1.08;;
51374;SDS011;37465;52.738;4.752;2022-08-20T17:26:22;3.70;;;1.38;;
51374;SDS011;37465;52.738;4.752;2022-08-20T17:53:33;4.95;;;1.63;;
51374;SDS011;37465;52.738;4.752;2022-08-20T17:56:08;2.42;;;1.13;;
51374;SDS011;37465;52.738;4.752;2022-08-20T17:58:40;4.10;;;1.38;;
51374;SDS011;37465;52.738;4.752;2022-08-20T18:03:47;3.47;;;1.20;;
51374;SDS011;37465;52.738;4.752;2022-08-20T18:06:17;3.28;;;1.15;;
51374;SDS011;37465;52.738;4.752;2022-08-20T18:11:17;3.67;;;1.58;;
51374;SDS011;37465;52.738;4.752;2022-08-20T18:13:54;5.55;;;1.83;;
51374;SDS011;37465;52.738;4.752;2022-08-20T18:18:55;4.10;;;1.63;;
51374;SDS011;37465;52.738;4.752;2022-08-20T18:24:10;6.03;;;1.73;;
51374;SDS011;37465;52.738;4.752;2022-08-20T18:26:41;4.15;;;1.58;;
51374;SDS011;37465;52.738;4.752;2022-08-20T18:29:11;3.65;;;1.65;;
51374;SDS011;37465;52.738;4.752;2022-08-20T18:31:41;4.47;;;1.95;;
51374;SDS011;37465;52.738;4.752;2022-08-20T18:34:10;4.07;;;1.80;;
51374;SDS011;37465;52.738;4.752;2022-08-20T18:36:38;4.07;;;1.70;;
51374;SDS011;37465;52.738;4.752;2022-08-20T18:39:06;4.72;;;1.70;;
